Time;durP1;ratioP1;P1;durP2;ratioP2;P2;SDS_P1;SDS_P2;PMS_P1;PMS_P2;Temp;Humidity;BMP_temperature;BMP_pressure;BME280_temperature;BME280_humidity;BME280_pressure;Samples;Min_cycle;Max_cycle;Signal;HPM_P1;HPM_P2
2024/01/18 00:00:43;;;;;;;13.50;9.53;;;;;;;;;;5091039;28;20682;-80
2024/01/18 00:03:10;;;;;;;12.80;10.07;;;;;;;;;;5090796;28;20226;-80
2024/01/18 00:05:38;;;;;;;12.30;9.87;;;;;;;;;;5090694;28;20698;-80
2024/01/18 00:08:05;;;;;;;11.77;7.83;;;;;;;;;;5090844;28;20220;-80
2024/01/18 00:10:32;;;;;;;11.87;8.27;;;;;;;;;;5091355;28;20204;-80
2024/01/18 00:12:59;;;;;;;8.07;7.27;;;;;;;;;;5090940;28;20196;-80
2024/01/18 00:15:26;;;;;;;10.43;8.03;;;;;;;;;;5090776;28;20208;-80
2024/01/18 00:17:56;;;;;;;11.80;8.97;;;;;;;;;;5090899;28;20211;-80
2024/01/18 00:20:24;;;;;;;10.23;7.97;;;;;;;;;;5090755;28;20592;-81
2024/01/18 00:22:52;;;;;;;14.10;8.67;;;;;;;;;;5090723;28;20200;-79
2024/01/18 00:25:20;;;;;;;9.90;8.47;;;;;;;;;;5091078;28;20215;-80
2024/01/18 00:27:47;;;;;;;11.83;8.67;;;;;;;;;;5090272;28;20200;-80
2024/01/18 00:30:16;;;;;;;9.77;8.47;;;;;;;;;;5090795;28;20204;-80
2024/01/18 00:32:43;;;;;;;9.07;8.03;;;;;;;;;;5090864;28;20208;-80
2024/01/18 00:35:10;;;;;;;7.70;7.00;;;;;;;;;;5090273;28;20212;-80
2024/01/18 00:37:37;;;;;;;9.80;7.20;;;;;;;;;;5090629;28;20655;-80
2024/01/18 00:40:06;;;;;;;9.17;7.87;;;;;;;;;;5090647;28;20212;-81
2024/01/18 00:42:33;;;;;;;11.03;8.77;;;;;;;;;;5090817;28;20207;-80
2024/01/18 00:45:00;;;;;;;9.70;8.70;;;;;;;;;;5090781;28;20260;-80
2024/01/18 00:47:27;;;;;;;9.90;8.90;;;;;;;;;;5091199;28;20207;-80
2024/01/18 00:49:53;;;;;;;16.27;11.07;;;;;;;;;;5090033;28;20264;-80
2024/01/18 00:52:20;;;;;;;15.37;11.43;;;;;;;;;;5090818;28;20206;-80
2024/01/18 00:54:47;;;;;;;10.77;9.23;;;;;;;;;;5090537;28;20204;-80
2024/01/18 00:57:15;;;;;;;10.63;9.13;;;;;;;;;;5090260;28;20207;-79
2024/01/18 00:59:42;;;;;;;10.83;8.53;;;;;;;;;;5090425;28;20205;-80
2024/01/18 01:02:08;;;;;;;10.43;9.23;;;;;;;;;;5090316;28;20579;-80
2024/01/18 01:04:35;;;;;;;11.07;9.23;;;;;;;;;;5090387;28;20204;-80
2024/01/18 01:07:03;;;;;;;13.27;9.70;;;;;;;;;;5090432;28;20636;-80
2024/01/18 01:09:30;;;;;;;10.33;8.77;;;;;;;;;;5090298;28;20251;-80
2024/01/18 01:11:57;;;;;;;11.00;7.70;;;;;;;;;;5090614;28;20215;-80
2024/01/18 01:14:25;;;;;;;9.73;8.13;;;;;;;;;;5090061;28;20196;-81
2024/01/18 01:16:51;;;;;;;10.90;8.90;;;;;;;;;;5090611;28;20747;-80
2024/01/18 01:19:18;;;;;;;11.03;8.20;;;;;;;;;;5089922;28;20273;-79
2024/01/18 01:21:45;;;;;;;16.53;10.17;;;;;;;;;;5090449;28;20212;-79
2024/01/18 01:24:12;;;;;;;13.30;9.57;;;;;;;;;;5090266;28;20211;-80
2024/01/18 01:26:39;;;;;;;14.43;9.60;;;;;;;;;;5089972;28;20675;-80
2024/01/18 01:29:08;;;;;;;12.07;8.87;;;;;;;;;;5089792;28;20232;-80
2024/01/18 01:31:36;;;;;;;8.87;7.83;;;;;;;;;;5090619;28;20200;-80
2024/01/18 01:34:02;;;;;;;9.57;8.27;;;;;;;;;;5091845;28;20200;-80
2024/01/18 01:36:29;;;;;;;8.03;6.80;;;;;;;;;;5093560;28;20208;-80
2024/01/18 01:38:56;;;;;;;11.20;9.27;;;;;;;;;;5093639;28;20265;-80
2024/01/18 01:41:23;;;;;;;12.93;8.20;;;;;;;;;;5094223;28;20234;-80
2024/01/18 01:43:59;;;;;;;11.87;9.07;;;;;;;;;;5093308;28;20212;-80
2024/01/18 01:46:26;;;;;;;10.10;8.57;;;;;;;;;;5093530;28;20207;-81
2024/01/18 01:48:59;;;;;;;10.90;8.70;;;;;;;;;;5093332;28;20645;-80
2024/01/18 01:51:25;;;;;;;13.20;8.27;;;;;;;;;;5093975;28;20204;-82
2024/01/18 01:53:53;;;;;;;9.17;7.67;;;;;;;;;;5093101;28;20675;-80
2024/01/18 01:56:20;;;;;;;10.27;8.23;;;;;;;;;;5094099;28;20200;-80
2024/01/18 01:58:47;;;;;;;9.37;7.33;;;;;;;;;;5093358;28;20570;-80
2024/01/18 02:01:14;;;;;;;9.70;7.20;;;;;;;;;;5093745;28;20208;-80
2024/01/18 02:03:41;;;;;;;9.87;8.53;;;;;;;;;;5093345;28;20208;-79
2024/01/18 02:06:09;;;;;;;9.00;7.70;;;;;;;;;;5090962;28;20257;-78
2024/01/18 02:08:36;;;;;;;10.77;7.93;;;;;;;;;;5092982;28;20232;-78
2024/01/18 02:11:04;;;;;;;12.70;7.70;;;;;;;;;;5093057;28;20204;-79
2024/01/18 02:13:31;;;;;;;9.03;7.03;;;;;;;;;;5092814;28;20207;-79
2024/01/18 02:15:58;;;;;;;10.43;7.87;;;;;;;;;;5092864;28;20269;-79
2024/01/18 02:18:25;;;;;;;13.50;7.53;;;;;;;;;;5093260;28;20234;-78
2024/01/18 02:20:52;;;;;;;7.50;6.70;;;;;;;;;;5092650;28;20193;-78
2024/01/18 02:23:21;;;;;;;9.67;7.27;;;;;;;;;;5090869;28;20207;-77
2024/01/18 02:25:49;;;;;;;10.93;8.20;;;;;;;;;;5092490;28;20188;-78
2024/01/18 02:28:16;;;;;;;11.23;8.30;;;;;;;;;;5092418;28;20232;-78
2024/01/18 02:30:43;;;;;;;10.07;7.60;;;;;;;;;;5092575;28;20197;-78
2024/01/18 02:33:10;;;;;;;10.07;8.53;;;;;;;;;;5092148;28;20204;-78
2024/01/18 02:35:37;;;;;;;8.20;7.40;;;;;;;;;;5092221;28;20633;-78
2024/01/18 02:38:04;;;;;;;14.50;8.93;;;;;;;;;;5092213;28;20284;-78
2024/01/18 02:40:31;;;;;;;9.43;8.53;;;;;;;;;;5091736;28;20208;-79
2024/01/18 02:42:59;;;;;;;11.83;9.13;;;;;;;;;;5092358;28;20207;-81
2024/01/18 02:45:26;;;;;;;14.97;9.40;;;;;;;;;;5092057;28;20208;-82
2024/01/18 02:47:53;;;;;;;10.30;8.53;;;;;;;;;;5092641;28;20212;-82
2024/01/18 02:50:20;;;;;;;11.13;8.37;;;;;;;;;;5091980;28;20670;-82
2024/01/18 02:52:47;;;;;;;12.77;8.47;;;;;;;;;;5091964;28;20642;-81
2024/01/18 02:55:14;;;;;;;9.33;8.23;;;;;;;;;;5092241;28;20253;-82
2024/01/18 02:57:41;;;;;;;11.33;8.57;;;;;;;;;;5092081;28;20200;-81
2024/01/18 03:00:11;;;;;;;9.20;8.17;;;;;;;;;;5091815;28;20196;-81
2024/01/18 03:02:38;;;;;;;12.07;9.27;;;;;;;;;;5090812;28;20209;-81
2024/01/18 03:05:06;;;;;;;14.50;10.07;;;;;;;;;;5091752;28;20208;-81
2024/01/18 03:07:33;;;;;;;10.53;9.03;;;;;;;;;;5091443;28;20258;-81
2024/01/18 03:10:00;;;;;;;13.23;11.17;;;;;;;;;;5091492;28;20224;-81
2024/01/18 03:12:26;;;;;;;11.33;10.20;;;;;;;;;;5082365;28;20204;-81
2024/01/18 03:14:53;;;;;;;11.07;9.07;;;;;;;;;;5091631;28;20204;-81
2024/01/18 03:17:21;;;;;;;11.80;8.10;;;;;;;;;;5091913;28;20200;-81
2024/01/18 03:19:48;;;;;;;9.93;8.57;;;;;;;;;;5091480;28;20201;-81
2024/01/18 03:22:15;;;;;;;15.17;12.27;;;;;;;;;;5091596;28;20201;-81
2024/01/18 03:24:42;;;;;;;19.40;13.13;;;;;;;;;;5091347;28;20196;-81
2024/01/18 03:27:09;;;;;;;25.27;19.60;;;;;;;;;;5091815;28;20270;-81
2024/01/18 03:29:36;;;;;;;23.00;18.67;;;;;;;;;;5091023;28;20236;-81
2024/01/18 03:32:02;;;;;;;17.40;14.33;;;;;;;;;;5091726;28;20192;-81
2024/01/18 03:34:31;;;;;;;16.57;14.37;;;;;;;;;;5091432;28;20203;-81
2024/01/18 03:36:57;;;;;;;14.20;10.30;;;;;;;;;;5091938;28;20204;-81
2024/01/18 03:39:24;;;;;;;14.80;12.40;;;;;;;;;;5091460;28;20208;-81
2024/01/18 03:41:52;;;;;;;15.30;12.20;;;;;;;;;;5089636;28;20215;-81
2024/01/18 03:44:19;;;;;;;19.67;14.80;;;;;;;;;;5093099;28;20204;-81
2024/01/18 03:46:46;;;;;;;23.00;18.80;;;;;;;;;;5093405;28;20231;-82
2024/01/18 03:49:14;;;;;;;20.07;17.73;;;;;;;;;;5091173;28;20630;-82
2024/01/18 03:51:42;;;;;;;17.17;14.37;;;;;;;;;;5091467;28;20211;-83
2024/01/18 03:54:10;;;;;;;13.27;11.03;;;;;;;;;;5090876;28;20203;-82
2024/01/18 03:56:37;;;;;;;10.83;9.37;;;;;;;;;;5090438;28;20670;-82
2024/01/18 03:59:03;;;;;;;14.23;9.57;;;;;;;;;;5090658;28;20196;-82
2024/01/18 04:01:31;;;;;;;10.93;8.90;;;;;;;;;;5090983;28;20200;-82
2024/01/18 04:03:58;;;;;;;9.63;8.43;;;;;;;;;;5090948;28;20204;-82
2024/01/18 04:06:25;;;;;;;10.13;8.57;;;;;;;;;;5090731;28;20203;-81
2024/01/18 04:08:53;;;;;;;10.73;9.03;;;;;;;;;;5090481;28;20208;-81
2024/01/18 04:11:20;;;;;;;12.60;8.70;;;;;;;;;;5090877;28;20216;-81
2024/01/18 04:13:47;;;;;;;12.23;9.60;;;;;;;;;;5090870;28;20623;-81
2024/01/18 04:16:14;;;;;;;9.50;8.37;;;;;;;;;;5090252;28;20203;-81
2024/01/18 04:18:41;;;;;;;12.33;9.37;;;;;;;;;;5089675;28;20211;-82
2024/01/18 04:21:08;;;;;;;13.00;10.37;;;;;;;;;;5091076;28;20200;-81
2024/01/18 04:23:35;;;;;;;10.60;9.50;;;;;;;;;;5090789;28;20639;-81
2024/01/18 04:26:04;;;;;;;14.47;11.37;;;;;;;;;;5090702;28;20768;-81
2024/01/18 04:28:31;;;;;;;16.13;12.27;;;;;;;;;;5090489;28;20247;-80
2024/01/18 04:30:58;;;;;;;13.80;12.40;;;;;;;;;;5089565;28;20216;-82
2024/01/18 04:33:25;;;;;;;19.20;12.50;;;;;;;;;;5087938;28;20200;-81
2024/01/18 04:35:54;;;;;;;14.97;12.83;;;;;;;;;;5087954;28;20188;-81
2024/01/18 04:38:21;;;;;;;13.60;12.10;;;;;;;;;;5087948;28;20626;-81
2024/01/18 04:40:50;;;;;;;14.23;12.00;;;;;;;;;;5088119;28;20231;-81
2024/01/18 04:43:18;;;;;;;30.60;20.80;;;;;;;;;;5088942;28;20262;-81
2024/01/18 04:45:45;;;;;;;21.43;15.90;;;;;;;;;;5089162;28;20617;-81
2024/01/18 04:48:13;;;;;;;30.07;19.80;;;;;;;;;;5090483;28;20207;-81
2024/01/18 04:50:40;;;;;;;81.73;52.23;;;;;;;;;;5077362;28;20220;-81
2024/01/18 04:53:07;;;;;;;48.83;32.50;;;;;;;;;;5090627;28;20201;-81
2024/01/18 04:55:34;;;;;;;31.33;20.63;;;;;;;;;;5090654;28;20571;-81
2024/01/18 04:58:00;;;;;;;27.17;20.17;;;;;;;;;;5090194;28;20265;-82
2024/01/18 05:00:29;;;;;;;21.93;16.57;;;;;;;;;;5088912;28;20204;-83
2024/01/18 05:02:56;;;;;;;16.00;12.87;;;;;;;;;;5087977;28;20212;-82
2024/01/18 05:05:23;;;;;;;17.43;12.97;;;;;;;;;;5090415;28;20208;-81
2024/01/18 05:07:50;;;;;;;15.60;12.53;;;;;;;;;;5089841;28;20283;-81
2024/01/18 05:10:17;;;;;;;10.80;9.67;;;;;;;;;;5093728;28;20228;-80
2024/01/18 05:12:44;;;;;;;11.20;9.53;;;;;;;;;;5094072;28;20219;-81
2024/01/18 05:15:11;;;;;;;10.97;9.77;;;;;;;;;;5094354;28;20299;-81
2024/01/18 05:17:41;;;;;;;11.57;10.37;;;;;;;;;;5093544;28;20210;-81
2024/01/18 05:20:09;;;;;;;12.30;8.53;;;;;;;;;;5094494;28;20254;-78
2024/01/18 05:22:36;;;;;;;10.23;9.13;;;;;;;;;;5094402;28;20203;-80
2024/01/18 05:25:03;;;;;;;11.70;9.23;;;;;;;;;;5094433;28;20205;-81
2024/01/18 05:27:30;;;;;;;10.77;9.13;;;;;;;;;;5093467;28;20676;-81
2024/01/18 05:29:57;;;;;;;10.67;8.70;;;;;;;;;;5094187;28;20239;-81
2024/01/18 05:32:24;;;;;;;11.43;9.97;;;;;;;;;;5093840;28;20200;-81
2024/01/18 05:34:53;;;;;;;11.20;10.00;;;;;;;;;;5094048;28;20269;-81
2024/01/18 05:37:22;;;;;;;10.70;9.57;;;;;;;;;;5093930;28;20200;-81
2024/01/18 05:39:50;;;;;;;11.63;9.10;;;;;;;;;;5092949;28;20226;-81
2024/01/18 05:42:18;;;;;;;11.37;9.70;;;;;;;;;;5091596;28;20236;-81
2024/01/18 05:44:46;;;;;;;13.47;11.30;;;;;;;;;;5093481;28;20228;-81
2024/01/18 05:47:15;;;;;;;12.63;10.43;;;;;;;;;;5093922;28;20279;-81
2024/01/18 05:49:42;;;;;;;10.70;9.60;;;;;;;;;;5093517;28;20224;-81
2024/01/18 05:52:10;;;;;;;14.10;10.53;;;;;;;;;;5093845;28;20208;-81
2024/01/18 05:54:37;;;;;;;13.47;10.53;;;;;;;;;;5092781;28;20208;-81
2024/01/18 05:57:06;;;;;;;11.33;9.50;;;;;;;;;;5092918;28;20202;-82
2024/01/18 05:59:33;;;;;;;13.80;12.33;;;;;;;;;;5092703;28;20196;-82
2024/01/18 06:02:01;;;;;;;15.43;13.13;;;;;;;;;;5093212;28;20200;-81
2024/01/18 06:04:30;;;;;;;16.83;13.80;;;;;;;;;;5092905;28;20589;-83
2024/01/18 06:06:58;;;;;;;14.57;12.43;;;;;;;;;;5093674;28;20200;-81
2024/01/18 06:09:26;;;;;;;36.23;25.47;;;;;;;;;;5093155;28;20201;-81
2024/01/18 06:11:54;;;;;;;32.07;25.33;;;;;;;;;;5093213;28;20211;-81
2024/01/18 06:14:21;;;;;;;14.87;13.27;;;;;;;;;;5092690;28;20682;-81
2024/01/18 06:16:47;;;;;;;13.57;12.03;;;;;;;;;;5093067;28;20678;-81
2024/01/18 06:19:14;;;;;;;13.67;12.13;;;;;;;;;;5092161;28;20675;-81
2024/01/18 06:21:42;;;;;;;21.13;17.40;;;;;;;;;;5093356;28;20205;-81
2024/01/18 06:24:08;;;;;;;19.93;16.73;;;;;;;;;;5092458;28;20200;-81
2024/01/18 06:26:37;;;;;;;23.27;16.40;;;;;;;;;;5093182;28;20222;-81
2024/01/18 06:29:04;;;;;;;18.83;16.03;;;;;;;;;;5092726;28;20228;-81
2024/01/18 06:31:31;;;;;;;26.17;19.83;;;;;;;;;;5093220;28;20224;-81
2024/01/18 06:33:58;;;;;;;23.40;17.60;;;;;;;;;;5092828;28;20208;-81
2024/01/18 06:36:24;;;;;;;20.77;17.73;;;;;;;;;;5092942;28;20209;-81
2024/01/18 06:38:52;;;;;;;23.30;20.80;;;;;;;;;;5092375;28;20208;-81
2024/01/18 06:41:19;;;;;;;63.40;40.30;;;;;;;;;;5092526;28;20208;-81
2024/01/18 06:43:48;;;;;;;50.90;36.27;;;;;;;;;;5092182;28;20238;-81
2024/01/18 06:46:17;;;;;;;55.90;39.20;;;;;;;;;;5092269;28;20702;-81
2024/01/18 06:48:45;;;;;;;42.50;35.67;;;;;;;;;;5091895;28;20220;-81
2024/01/18 06:51:14;;;;;;;26.80;21.27;;;;;;;;;;5092499;28;20224;-81
2024/01/18 06:53:41;;;;;;;26.83;19.87;;;;;;;;;;5091977;28;20201;-81
2024/01/18 06:56:14;;;;;;;21.83;19.47;;;;;;;;;;5092511;28;20224;-82
2024/01/18 06:58:41;;;;;;;22.93;19.43;;;;;;;;;;5091652;28;20196;-81
2024/01/18 07:01:09;;;;;;;25.00;20.33;;;;;;;;;;5092216;28;20204;-82
2024/01/18 07:03:37;;;;;;;24.13;20.90;;;;;;;;;;5091803;28;20204;-81
2024/01/18 07:06:05;;;;;;;28.50;21.50;;;;;;;;;;5092569;28;20268;-81
2024/01/18 07:08:32;;;;;;;19.67;15.53;;;;;;;;;;5092126;28;20200;-81
2024/01/18 07:10:59;;;;;;;20.47;16.13;;;;;;;;;;5091735;28;20232;-81
2024/01/18 07:13:28;;;;;;;22.03;18.10;;;;;;;;;;5092078;28;20196;-81
2024/01/18 07:15:54;;;;;;;72.07;47.30;;;;;;;;;;5092065;28;20207;-81
2024/01/18 07:18:23;;;;;;;66.60;47.60;;;;;;;;;;5091779;28;20204;-81
2024/01/18 07:20:50;;;;;;;32.20;23.37;;;;;;;;;;5092015;28;20208;-81
2024/01/18 07:23:17;;;;;;;20.03;15.97;;;;;;;;;;5091843;28;20200;-81
2024/01/18 07:25:44;;;;;;;27.60;20.53;;;;;;;;;;5091438;28;20261;-81
2024/01/18 07:28:12;;;;;;;23.60;17.87;;;;;;;;;;5091870;28;20224;-81
2024/01/18 07:30:39;;;;;;;34.40;25.50;;;;;;;;;;5090765;28;20659;-81
2024/01/18 07:33:06;;;;;;;25.90;21.33;;;;;;;;;;5091200;28;20598;-81
2024/01/18 07:35:35;;;;;;;24.33;18.53;;;;;;;;;;5091875;28;20265;-81
2024/01/18 07:38:03;;;;;;;27.07;20.33;;;;;;;;;;5091594;28;20196;-81
2024/01/18 07:40:29;;;;;;;26.67;20.20;;;;;;;;;;5091606;28;20227;-81
2024/01/18 07:42:56;;;;;;;27.80;19.47;;;;;;;;;;5091425;28;20200;-81
2024/01/18 07:45:23;;;;;;;24.80;19.20;;;;;;;;;;5091638;28;20208;-81
2024/01/18 07:47:50;;;;;;;30.67;22.80;;;;;;;;;;5090952;28;20199;-81
2024/01/18 07:50:17;;;;;;;22.53;16.93;;;;;;;;;;5091585;28;20220;-81
2024/01/18 07:52:45;;;;;;;34.03;28.70;;;;;;;;;;5090875;28;20211;-81
2024/01/18 07:55:12;;;;;;;42.60;31.17;;;;;;;;;;5091217;28;20196;-81
2024/01/18 07:57:39;;;;;;;35.70;27.40;;;;;;;;;;5091235;28;20200;-81
2024/01/18 08:00:08;;;;;;;24.43;21.07;;;;;;;;;;5091525;28;20200;-81
2024/01/18 08:02:35;;;;;;;23.20;20.60;;;;;;;;;;5091585;28;20204;-81
2024/01/18 08:05:01;;;;;;;22.77;20.37;;;;;;;;;;5091063;28;20200;-81
2024/01/18 08:07:28;;;;;;;22.43;19.23;;;;;;;;;;5090941;28;20201;-81
2024/01/18 08:09:56;;;;;;;21.03;18.73;;;;;;;;;;5091110;28;20212;-81
2024/01/18 08:12:23;;;;;;;20.43;16.87;;;;;;;;;;5090818;28;20232;-80
2024/01/18 08:14:50;;;;;;;17.07;14.87;;;;;;;;;;5091166;28;20219;-80
2024/01/18 08:17:17;;;;;;;16.23;14.47;;;;;;;;;;5091627;28;20269;-80
2024/01/18 08:19:44;;;;;;;58.93;29.33;;;;;;;;;;5090911;28;20211;-81
2024/01/18 08:22:12;;;;;;;30.73;20.30;;;;;;;;;;5091078;28;20200;-82
2024/01/18 08:24:39;;;;;;;126.87;56.20;;;;;;;;;;5090905;28;20200;-80
2024/01/18 08:27:07;;;;;;;36.37;24.43;;;;;;;;;;5091364;28;20203;-80
2024/01/18 08:29:34;;;;;;;32.50;21.97;;;;;;;;;;5077592;28;20231;-79
2024/01/18 08:32:01;;;;;;;45.37;25.37;;;;;;;;;;5090392;28;20674;-80
2024/01/18 08:34:28;;;;;;;25.83;20.77;;;;;;;;;;5090828;28;20233;-80
2024/01/18 08:36:55;;;;;;;28.27;20.17;;;;;;;;;;5090862;28;20215;-81
2024/01/18 08:39:21;;;;;;;24.77;20.93;;;;;;;;;;5090862;28;20207;-80
2024/01/18 08:41:49;;;;;;;27.47;23.23;;;;;;;;;;5090234;28;20192;-80
2024/01/18 08:44:17;;;;;;;20.43;17.50;;;;;;;;;;5095178;28;20278;-80
2024/01/18 08:46:44;;;;;;;17.23;14.80;;;;;;;;;;5094805;28;20204;-80
2024/01/18 08:49:11;;;;;;;25.80;18.83;;;;;;;;;;5094862;28;20206;-80
2024/01/18 08:51:38;;;;;;;19.37;17.43;;;;;;;;;;5094524;28;20232;-80
2024/01/18 08:54:06;;;;;;;19.67;13.57;;;;;;;;;;5094653;28;20197;-80
2024/01/18 08:56:32;;;;;;;20.17;16.87;;;;;;;;;;5095240;28;20234;-80
2024/01/18 08:58:59;;;;;;;17.90;15.00;;;;;;;;;;5094688;28;20196;-80
2024/01/18 09:01:28;;;;;;;15.20;12.17;;;;;;;;;;5094502;28;20208;-79
2024/01/18 09:03:54;;;;;;;12.97;10.90;;;;;;;;;;5094778;28;20260;-80
2024/01/18 09:06:21;;;;;;;11.73;10.30;;;;;;;;;;5094502;28;20755;-80
2024/01/18 09:08:48;;;;;;;16.27;13.73;;;;;;;;;;5094112;28;20700;-80
2024/01/18 09:11:15;;;;;;;13.97;11.80;;;;;;;;;;5094703;28;20659;-81
2024/01/18 09:13:42;;;;;;;17.07;15.27;;;;;;;;;;5094176;28;20685;-80
2024/01/18 09:16:09;;;;;;;23.07;18.87;;;;;;;;;;5094895;28;20697;-80
2024/01/18 09:18:38;;;;;;;29.13;19.80;;;;;;;;;;5094022;28;20196;-80
2024/01/18 09:21:06;;;;;;;30.40;22.63;;;;;;;;;;5094031;28;20581;-80
2024/01/18 09:23:33;;;;;;;22.47;20.17;;;;;;;;;;5094385;28;20265;-80
2024/01/18 09:26:00;;;;;;;22.53;20.33;;;;;;;;;;5094188;28;20196;-80
2024/01/18 09:28:27;;;;;;;32.50;28.03;;;;;;;;;;5094016;28;20228;-80
2024/01/18 09:30:54;;;;;;;22.30;20.03;;;;;;;;;;5094266;28;20682;-80
2024/01/18 09:33:21;;;;;;;16.90;14.70;;;;;;;;;;5094205;28;20605;-80
2024/01/18 09:35:49;;;;;;;24.70;15.23;;;;;;;;;;5093694;28;20201;-81
2024/01/18 09:38:16;;;;;;;16.90;14.33;;;;;;;;;;5093538;28;20205;-82
2024/01/18 09:40:42;;;;;;;16.27;14.47;;;;;;;;;;5094182;28;20203;-80
2024/01/18 09:43:10;;;;;;;19.03;14.77;;;;;;;;;;5093575;28;20693;-80
2024/01/18 09:45:40;;;;;;;17.60;15.20;;;;;;;;;;5094269;28;20232;-80
2024/01/18 09:48:08;;;;;;;17.47;14.93;;;;;;;;;;5093450;28;20255;-80
2024/01/18 09:50:37;;;;;;;21.37;17.90;;;;;;;;;;5093482;28;20200;-80
2024/01/18 09:53:05;;;;;;;20.00;16.47;;;;;;;;;;5093158;28;20612;-81
2024/01/18 09:55:32;;;;;;;23.90;16.13;;;;;;;;;;5092970;28;20210;-80
2024/01/18 09:57:59;;;;;;;16.93;15.23;;;;;;;;;;5093082;28;20204;-80
2024/01/18 10:00:27;;;;;;;20.03;15.93;;;;;;;;;;5093396;28;20682;-80
2024/01/18 10:02:54;;;;;;;20.23;17.77;;;;;;;;;;5093258;28;20614;-81
2024/01/18 10:05:21;;;;;;;17.77;15.87;;;;;;;;;;5093561;28;20196;-80
2024/01/18 10:07:48;;;;;;;21.87;15.97;;;;;;;;;;5092769;28;20196;-82
2024/01/18 10:10:18;;;;;;;25.23;16.03;;;;;;;;;;5093638;28;20200;-80
2024/01/18 10:12:47;;;;;;;25.97;18.63;;;;;;;;;;5094771;28;20220;-80
2024/01/18 10:15:32;;;;;;;20.47;16.37;;;;;;;;;;5104149;28;20210;-80
2024/01/18 10:17:58;;;;;;;18.97;15.23;;;;;;;;;;5092739;28;20201;-80
2024/01/18 10:20:26;;;;;;;25.40;17.97;;;;;;;;;;5093116;28;20588;-80
2024/01/18 10:22:54;;;;;;;20.27;16.50;;;;;;;;;;5092744;28;20208;-80
2024/01/18 10:25:25;;;;;;;20.17;17.33;;;;;;;;;;5092829;28;20256;-80
2024/01/18 10:27:56;;;;;;;21.03;17.63;;;;;;;;;;5092583;28;20200;-80
2024/01/18 10:30:25;;;;;;;20.30;17.03;;;;;;;;;;5093092;28;20196;-80
2024/01/18 10:32:52;;;;;;;13.40;12.00;;;;;;;;;;5092823;28;20236;-80
2024/01/18 10:35:20;;;;;;;15.57;11.90;;;;;;;;;;5092780;28;20211;-80
2024/01/18 10:37:47;;;;;;;15.80;13.00;;;;;;;;;;5092437;28;20238;-80
2024/01/18 10:40:19;;;;;;;16.20;12.60;;;;;;;;;;5092667;28;20598;-80
2024/01/18 10:42:50;;;;;;;33.83;22.67;;;;;;;;;;5092994;28;20219;-80
2024/01/18 10:45:17;;;;;;;31.70;27.37;;;;;;;;;;5092598;28;20196;-80
2024/01/18 10:47:45;;;;;;;38.37;29.77;;;;;;;;;;5092540;28;20204;-80
2024/01/18 10:50:12;;;;;;;27.37;24.13;;;;;;;;;;5092878;28;20211;-80
2024/01/18 10:52:39;;;;;;;25.40;22.57;;;;;;;;;;5092411;28;20232;-80
2024/01/18 10:55:08;;;;;;;21.97;18.17;;;;;;;;;;5091975;28;20192;-80
2024/01/18 10:57:35;;;;;;;19.93;15.80;;;;;;;;;;5092584;28;20208;-80
2024/01/18 11:00:06;;;;;;;19.33;16.27;;;;;;;;;;5092327;28;20200;-80
2024/01/18 11:02:39;;;;;;;17.87;15.97;;;;;;;;;;5092094;28;20207;-80
2024/01/18 11:05:08;;;;;;;25.27;20.17;;;;;;;;;;5091836;28;20215;-80
2024/01/18 11:07:35;;;;;;;26.67;21.93;;;;;;;;;;5091993;28;20200;-80
2024/01/18 11:10:02;;;;;;;22.60;20.13;;;;;;;;;;5091739;28;20662;-80
2024/01/18 11:12:29;;;;;;;36.47;25.80;;;;;;;;;;5092149;28;20696;-80
2024/01/18 11:14:56;;;;;;;29.97;22.17;;;;;;;;;;5091426;28;20193;-80
2024/01/18 11:17:28;;;;;;;20.27;17.60;;;;;;;;;;5092197;28;20204;-80
2024/01/18 11:20:00;;;;;;;24.13;17.77;;;;;;;;;;5091897;28;20636;-80
2024/01/18 11:22:28;;;;;;;16.13;14.00;;;;;;;;;;5091919;28;20208;-80
2024/01/18 11:24:54;;;;;;;23.30;19.13;;;;;;;;;;5092034;28;20203;-80
2024/01/18 11:27:22;;;;;;;20.43;18.20;;;;;;;;;;5092180;28;20211;-80
2024/01/18 11:29:49;;;;;;;24.97;17.63;;;;;;;;;;5091661;28;20228;-78
2024/01/18 11:32:19;;;;;;;19.87;16.03;;;;;;;;;;5091354;28;20799;-78
2024/01/18 11:34:49;;;;;;;20.03;16.60;;;;;;;;;;5091649;28;20287;-78
2024/01/18 11:37:16;;;;;;;19.30;15.17;;;;;;;;;;5091524;28;20212;-78
2024/01/18 11:39:56;;;;;;;10.73;9.63;;;;;;;;;;5091150;28;20211;-78
2024/01/18 11:42:24;;;;;;;8.73;7.97;;;;;;;;;;5091576;28;20705;-78
2024/01/18 11:44:55;;;;;;;9.73;8.73;;;;;;;;;;5091424;28;20204;-78
2024/01/18 11:47:23;;;;;;;10.70;8.30;;;;;;;;;;5091758;28;20729;-78
2024/01/18 11:49:54;;;;;;;7.73;7.03;;;;;;;;;;5091366;28;20682;-78
2024/01/18 11:52:22;;;;;;;11.67;10.27;;;;;;;;;;5078400;28;20231;-78
2024/01/18 11:54:53;;;;;;;13.57;11.90;;;;;;;;;;5091298;28;20204;-78
2024/01/18 11:57:20;;;;;;;9.80;7.30;;;;;;;;;;5091885;28;20196;-78
2024/01/18 11:59:47;;;;;;;9.47;8.50;;;;;;;;;;5090847;28;20269;-78
2024/01/18 12:02:14;;;;;;;9.33;7.43;;;;;;;;;;5091433;28;20201;-78
2024/01/18 12:04:41;;;;;;;8.33;6.57;;;;;;;;;;5090997;28;20215;-78
2024/01/18 12:07:11;;;;;;;10.70;7.67;;;;;;;;;;5091006;28;20258;-78
2024/01/18 12:09:38;;;;;;;10.07;9.00;;;;;;;;;;5090780;28;20640;-78
2024/01/18 12:12:06;;;;;;;8.57;7.53;;;;;;;;;;5091109;28;20231;-78
2024/01/18 12:14:33;;;;;;;9.87;8.87;;;;;;;;;;5090577;28;20212;-78
2024/01/18 12:17:00;;;;;;;12.30;10.23;;;;;;;;;;5090912;28;20253;-78
2024/01/18 12:19:32;;;;;;;11.70;10.50;;;;;;;;;;5090725;28;20647;-78
2024/01/18 12:21:59;;;;;;;10.87;8.53;;;;;;;;;;5090894;28;20244;-78
2024/01/18 12:24:27;;;;;;;15.60;12.03;;;;;;;;;;5090618;28;20689;-78
2024/01/18 12:26:54;;;;;;;7.60;6.87;;;;;;;;;;5091071;28;20196;-78
2024/01/18 12:29:22;;;;;;;10.30;8.17;;;;;;;;;;5090632;28;20228;-78
2024/01/18 12:31:50;;;;;;;5.27;4.70;;;;;;;;;;5090586;28;20258;-78
2024/01/18 12:34:18;;;;;;;5.47;4.90;;;;;;;;;;5090671;28;20200;-78
2024/01/18 12:36:45;;;;;;;5.33;4.83;;;;;;;;;;5090920;28;20200;-78
2024/01/18 12:39:17;;;;;;;12.20;7.50;;;;;;;;;;5090164;28;20196;-78
2024/01/18 12:41:46;;;;;;;6.53;4.93;;;;;;;;;;5091031;28;20208;-78
2024/01/18 12:44:13;;;;;;;5.87;4.87;;;;;;;;;;5077463;28;20746;-77
2024/01/18 12:46:40;;;;;;;7.13;5.53;;;;;;;;;;5091082;28;20208;-78
2024/01/18 12:49:08;;;;;;;6.13;5.53;;;;;;;;;;5090684;28;20573;-77
2024/01/18 12:51:35;;;;;;;38.33;24.57;;;;;;;;;;5090614;28;20257;-78
2024/01/18 12:54:02;;;;;;;20.27;15.77;;;;;;;;;;5090913;28;20212;-78
2024/01/18 12:56:29;;;;;;;8.43;7.40;;;;;;;;;;5090591;28;20203;-78
2024/01/18 12:58:57;;;;;;;17.70;14.53;;;;;;;;;;5090386;28;20200;-77
2024/01/18 13:01:34;;;;;;;10.73;9.60;;;;;;;;;;5090627;28;20207;-78
2024/01/18 13:04:14;;;;;;;9.67;8.73;;;;;;;;;;5090689;28;20218;-78
2024/01/18 13:06:43;;;;;;;10.77;8.13;;;;;;;;;;5090465;28;20204;-78
2024/01/18 13:09:10;;;;;;;13.77;12.57;;;;;;;;;;5090464;28;20206;-77
2024/01/18 13:11:37;;;;;;;8.67;6.77;;;;;;;;;;5090248;28;20718;-78
2024/01/18 13:14:06;;;;;;;17.00;13.83;;;;;;;;;;5090361;28;20622;-77
2024/01/18 13:16:33;;;;;;;18.40;16.50;;;;;;;;;;5090192;28;20289;-78
2024/01/18 13:19:01;;;;;;;8.37;6.83;;;;;;;;;;5089830;28;20223;-79
2024/01/18 13:21:28;;;;;;;7.57;6.13;;;;;;;;;;5090712;28;20211;-79
2024/01/18 13:23:55;;;;;;;12.17;10.97;;;;;;;;;;5090513;28;20204;-79
2024/01/18 13:26:22;;;;;;;22.23;19.93;;;;;;;;;;5090178;28;20205;-79
2024/01/18 13:28:49;;;;;;;14.77;11.50;;;;;;;;;;5089908;28;20235;-79
2024/01/18 13:31:20;;;;;;;25.87;23.07;;;;;;;;;;5093775;28;20204;-79
2024/01/18 13:33:46;;;;;;;25.17;22.13;;;;;;;;;;5093650;28;20270;-78
2024/01/18 13:36:14;;;;;;;18.50;16.27;;;;;;;;;;5094131;28;20222;-78
2024/01/18 13:38:41;;;;;;;15.43;12.47;;;;;;;;;;5093521;28;20676;-78
2024/01/18 13:41:07;;;;;;;20.07;16.90;;;;;;;;;;5093702;28;20188;-79
2024/01/18 13:43:34;;;;;;;14.73;12.47;;;;;;;;;;5093886;28;20205;-78
2024/01/18 13:46:01;;;;;;;10.23;9.27;;;;;;;;;;5094009;28;20651;-79
2024/01/18 13:48:30;;;;;;;12.83;8.47;;;;;;;;;;5093577;28;20200;-78
2024/01/18 13:50:58;;;;;;;10.20;7.50;;;;;;;;;;5093821;28;20197;-78
2024/01/18 13:53:25;;;;;;;9.07;8.17;;;;;;;;;;5093265;28;20224;-78
2024/01/18 13:55:52;;;;;;;8.73;7.70;;;;;;;;;;5093704;28;20215;-78
2024/01/18 13:58:19;;;;;;;9.00;7.90;;;;;;;;;;5092965;28;20219;-79
2024/01/18 14:00:45;;;;;;;8.70;7.80;;;;;;;;;;5093667;28;20209;-78
2024/01/18 14:03:13;;;;;;;8.50;7.73;;;;;;;;;;5093228;28;20208;-79
2024/01/18 14:05:42;;;;;;;9.13;7.70;;;;;;;;;;5093197;28;20358;-79
2024/01/18 14:08:09;;;;;;;8.60;7.73;;;;;;;;;;5093271;28;20203;-79
2024/01/18 14:10:36;;;;;;;12.83;8.97;;;;;;;;;;5093334;28;20574;-79
2024/01/18 14:13:03;;;;;;;19.93;15.27;;;;;;;;;;5092677;28;20220;-79
2024/01/18 14:15:31;;;;;;;18.17;16.23;;;;;;;;;;5093698;28;20204;-78
2024/01/18 14:17:58;;;;;;;13.50;12.10;;;;;;;;;;5092878;28;20200;-78
2024/01/18 14:20:25;;;;;;;12.97;11.57;;;;;;;;;;5092739;28;20204;-78
2024/01/18 14:22:53;;;;;;;22.97;20.30;;;;;;;;;;5092809;28;20196;-78
2024/01/18 14:25:20;;;;;;;17.20;15.60;;;;;;;;;;5093037;28;20250;-78